createdAt,value
2023-08-05T00:01:36.078Z,10.90
2023-08-05T00:05:44.294Z,8.20
2023-08-05T00:09:52.329Z,10.90
2023-08-05T00:13:59.979Z,10.60
2023-08-05T00:18:07.851Z,8.50
2023-08-05T00:22:15.580Z,8.00
2023-08-05T00:26:23.497Z,8.00
2023-08-05T00:30:31.035Z,8.80
2023-08-05T00:34:38.502Z,9.30
2023-08-05T00:38:45.899Z,8.60
2023-08-05T00:42:53.670Z,9.30
2023-08-05T00:47:01.992Z,9.70
2023-08-05T00:51:11.213Z,9.20
2023-08-05T00:55:19.233Z,11.30
2023-08-05T00:59:27.281Z,8.50
2023-08-05T01:03:35.158Z,11.20
2023-08-05T01:07:44.281Z,7.90
2023-08-05T01:11:51.989Z,8.00
2023-08-05T01:15:59.527Z,10.50
2023-08-05T01:20:09.823Z,8.80
2023-08-05T01:24:26.986Z,9.00
2023-08-05T01:28:35.577Z,9.00
2023-08-05T01:32:46.263Z,8.30
2023-08-05T01:36:55.729Z,10.80
2023-08-05T01:41:03.914Z,8.70
2023-08-05T01:45:12.877Z,9.10
2023-08-05T01:49:20.711Z,11.40
2023-08-05T01:53:28.636Z,9.90
2023-08-05T01:57:36.383Z,9.40
2023-08-05T02:01:49.049Z,10.20
2023-08-05T02:05:57.323Z,10.30
2023-08-05T02:10:05.317Z,10.30
2023-08-05T02:14:13.390Z,9.90
2023-08-05T02:18:22.502Z,8.10
2023-08-05T02:22:30.243Z,8.40
2023-08-05T02:26:40.437Z,7.90
2023-08-05T02:30:48.372Z,7.50
2023-08-05T02:34:57.021Z,9.10
2023-08-05T02:39:05.483Z,9.20
2023-08-05T02:43:13.225Z,10.00
2023-08-05T02:47:20.795Z,9.30
2023-08-05T02:51:28.446Z,9.90
2023-08-05T02:55:36.709Z,10.50
2023-08-05T02:59:44.891Z,10.60
2023-08-05T03:03:52.831Z,9.20
2023-08-05T03:08:00.999Z,11.20
2023-08-05T03:12:12.357Z,9.40
2023-08-05T03:16:20.356Z,10.20
2023-08-05T03:20:29.684Z,8.40
2023-08-05T03:24:37.790Z,8.40
2023-08-05T03:28:45.699Z,10.00
2023-08-05T03:32:53.744Z,9.30
2023-08-05T03:37:03.857Z,10.20
2023-08-05T03:41:11.366Z,8.70
2023-08-05T03:45:19.508Z,12.70
2023-08-05T03:49:27.392Z,8.40
2023-08-05T03:53:36.681Z,9.20
2023-08-05T03:57:48.329Z,10.30
2023-08-05T04:01:56.143Z,8.30
2023-08-05T04:06:03.621Z,9.40
2023-08-05T04:10:13.732Z,9.20
2023-08-05T04:14:21.962Z,8.80
2023-08-05T04:18:30.448Z,10.20
2023-08-05T04:22:39.524Z,11.10
2023-08-05T04:26:47.065Z,9.00
2023-08-05T04:30:54.607Z,11.30
2023-08-05T04:35:04.704Z,9.10
2023-08-05T04:39:13.158Z,8.10
2023-08-05T04:43:20.815Z,8.80
2023-08-05T04:47:28.779Z,10.50
2023-08-05T04:51:39.869Z,10.20
2023-08-05T04:55:47.310Z,9.80
2023-08-05T04:59:54.686Z,9.60
2023-08-05T05:04:02.897Z,10.10
2023-08-05T05:08:10.891Z,9.20
2023-08-05T05:12:19.259Z,10.90
2023-08-05T05:16:27.056Z,9.20
2023-08-05T05:20:34.392Z,11.80
2023-08-05T05:24:44.106Z,10.70
2023-08-05T05:28:52.327Z,9.70
2023-08-05T05:32:59.817Z,10.90
2023-08-05T05:37:08.140Z,11.70
2023-08-05T05:41:17.406Z,8.30
2023-08-05T05:45:25.020Z,9.30
2023-08-05T05:49:33.691Z,9.80
2023-08-05T05:53:42.106Z,9.90
2023-08-05T05:57:50.332Z,9.30
2023-08-05T06:01:58.198Z,8.50
2023-08-05T06:06:05.900Z,12.00
2023-08-05T06:10:13.544Z,9.90
2023-08-05T06:14:22.410Z,9.50
2023-08-05T06:18:31.155Z,9.90
2023-08-05T06:22:38.823Z,10.40
2023-08-05T06:26:46.602Z,9.30
2023-08-05T06:30:54.242Z,8.50
2023-08-05T06:35:01.907Z,11.50
2023-08-05T06:39:09.752Z,9.60
2023-08-05T06:43:17.732Z,10.00
2023-08-05T06:47:32.728Z,13.60
2023-08-05T06:51:40.812Z,12.30
2023-08-05T06:55:50.460Z,12.00
2023-08-05T06:59:57.871Z,11.00
2023-08-05T07:04:06.138Z,10.60
2023-08-05T07:08:13.921Z,11.00
2023-08-05T07:12:22.011Z,11.20
2023-08-05T07:16:29.415Z,10.10
2023-08-05T07:20:37.195Z,11.50
2023-08-05T07:24:44.759Z,10.10
2023-08-05T07:28:53.327Z,10.40
2023-08-05T07:33:01.856Z,10.10
2023-08-05T07:37:11.026Z,12.20
2023-08-05T07:41:21.522Z,10.40
2023-08-05T07:45:30.069Z,8.50
2023-08-05T07:49:38.536Z,7.90
2023-08-05T07:53:47.299Z,10.90
2023-08-05T07:57:55.448Z,8.90
2023-08-05T08:02:02.800Z,12.00
2023-08-05T08:06:11.581Z,10.50
2023-08-05T08:10:19.421Z,9.80
2023-08-05T08:14:27.374Z,9.60
2023-08-05T08:18:35.353Z,9.90
2023-08-05T08:22:43.004Z,9.60
2023-08-05T08:26:50.878Z,9.80
2023-08-05T08:30:59.318Z,10.70
2023-08-05T08:35:08.424Z,11.70
2023-08-05T08:39:18.096Z,9.60
2023-08-05T08:43:26.731Z,11.40
2023-08-05T08:47:36.114Z,9.10
2023-08-05T08:51:44.345Z,10.10
2023-08-05T08:55:51.991Z,12.60
2023-08-05T08:59:59.985Z,10.40
2023-08-05T09:04:12.376Z,10.80
2023-08-05T09:08:20.399Z,13.70
2023-08-05T09:12:32.358Z,12.80
2023-08-05T09:17:00.583Z,12.50
2023-08-05T09:21:08.828Z,11.20
2023-08-05T09:25:17.464Z,13.40
2023-08-05T09:29:26.165Z,12.90
2023-08-05T09:33:34.125Z,15.50
2023-08-05T09:37:42.733Z,12.30
2023-08-05T09:41:54.533Z,11.70
2023-08-05T09:46:04.241Z,16.20
2023-08-05T09:50:16.514Z,12.30
2023-08-05T09:54:32.249Z,11.70
2023-08-05T09:58:40.103Z,13.30
2023-08-05T10:02:50.016Z,13.00
2023-08-05T10:06:58.111Z,10.40
2023-08-05T10:11:06.515Z,12.70
2023-08-05T10:15:21.162Z,11.10
2023-08-05T10:19:35.925Z,13.60
2023-08-05T10:23:43.630Z,12.20
2023-08-05T10:27:51.396Z,13.10
2023-08-05T10:32:13.066Z,14.10
2023-08-05T10:36:24.591Z,14.60
2023-08-05T10:41:01.930Z,13.30
2023-08-05T10:45:12.918Z,14.50
2023-08-05T10:49:23.842Z,10.40
2023-08-05T10:53:31.585Z,12.90
2023-08-05T10:57:55.900Z,11.70
2023-08-05T11:02:04.355Z,13.00
2023-08-05T11:06:14.409Z,11.80
2023-08-05T11:10:22.275Z,12.20
2023-08-05T11:14:30.306Z,12.20
2023-08-05T11:18:38.301Z,13.90
2023-08-05T11:22:50.864Z,12.80
2023-08-05T11:26:58.455Z,15.40
2023-08-05T11:31:06.144Z,12.50
2023-08-05T11:35:16.557Z,14.30
2023-08-05T11:39:27.964Z,11.80
2023-08-05T11:43:36.672Z,13.60
2023-08-05T11:47:46.778Z,12.90
2023-08-05T11:51:56.084Z,12.60
2023-08-05T11:56:08.052Z,12.70
2023-08-05T12:00:16.794Z,15.00
2023-08-05T12:04:25.565Z,14.00
2023-08-05T12:08:44.845Z,15.90
2023-08-05T12:12:53.543Z,14.00
2023-08-05T12:17:01.740Z,15.70
2023-08-05T12:21:09.296Z,16.00
2023-08-05T12:25:17.808Z,14.90
2023-08-05T12:29:25.752Z,16.50
2023-08-05T12:33:34.643Z,15.80
2023-08-05T12:37:43.627Z,14.90
2023-08-05T12:41:51.419Z,13.60
2023-08-05T12:45:59.658Z,15.60
2023-08-05T12:50:10.014Z,17.80
2023-08-05T12:54:17.806Z,16.80
2023-08-05T12:58:25.584Z,14.30
2023-08-05T13:02:33.420Z,12.30
2023-08-05T13:06:40.948Z,13.40
2023-08-05T13:10:49.148Z,14.10
2023-08-05T13:14:56.800Z,13.90
2023-08-05T13:19:04.153Z,12.70
2023-08-05T13:23:11.805Z,13.30
2023-08-05T13:27:22.770Z,12.00
2023-08-05T13:31:30.487Z,13.60
2023-08-05T13:35:38.210Z,15.10
2023-08-05T13:39:45.989Z,15.60
2023-08-05T13:43:53.511Z,14.20
2023-08-05T13:48:01.454Z,15.50
2023-08-05T13:52:10.450Z,15.00
2023-08-05T13:56:18.364Z,13.90
2023-08-05T14:00:26.387Z,15.50
2023-08-05T14:04:34.202Z,16.20
2023-08-05T14:08:43.349Z,14.80
2023-08-05T14:12:51.320Z,14.70
2023-08-05T14:16:59.186Z,19.80
2023-08-05T14:21:07.540Z,14.70
2023-08-05T14:25:15.348Z,16.50
2023-08-05T14:29:23.314Z,14.40
2023-08-05T14:33:31.654Z,14.20
2023-08-05T14:37:40.782Z,14.70
2023-08-05T14:41:49.102Z,15.20
2023-08-05T14:45:57.528Z,14.40
2023-08-05T14:50:07.717Z,15.20
2023-08-05T14:54:16.111Z,12.80
2023-08-05T14:58:24.191Z,12.80
2023-08-05T15:02:32.314Z,11.00
2023-08-05T15:06:40.137Z,9.80
2023-08-05T15:10:48.047Z,9.80
2023-08-05T15:14:57.956Z,10.90
2023-08-05T15:19:05.668Z,12.00
2023-08-05T15:23:27.297Z,10.90
2023-08-05T15:27:39.310Z,10.40
2023-08-05T15:31:50.262Z,11.40
2023-08-05T15:35:58.312Z,11.50
2023-08-05T15:40:11.098Z,9.80
2023-08-05T15:44:18.929Z,10.10
2023-08-05T15:48:26.855Z,8.30
2023-08-05T15:52:34.546Z,8.10
2023-08-05T15:56:42.491Z,7.10
2023-08-05T16:00:53.311Z,7.30
2023-08-05T16:05:01.695Z,8.70
2023-08-05T16:09:09.578Z,9.10
2023-08-05T16:13:17.266Z,7.50
2023-08-05T16:17:27.825Z,7.60
2023-08-05T16:21:38.664Z,7.20
2023-08-05T16:25:46.609Z,8.00
2023-08-05T16:29:57.370Z,6.30
2023-08-05T16:34:07.047Z,6.60
2023-08-05T16:38:15.306Z,6.80
2023-08-05T16:42:23.220Z,7.40
2023-08-05T16:46:43.017Z,6.90
2023-08-05T16:50:58.323Z,6.80
2023-08-05T16:55:06.217Z,7.40
2023-08-05T16:59:13.729Z,7.40
2023-08-05T17:03:22.338Z,6.60
2023-08-05T17:07:30.219Z,6.60
2023-08-05T17:11:37.826Z,5.60
2023-08-05T17:15:49.704Z,6.00
2023-08-05T17:19:57.720Z,6.90
2023-08-05T17:24:05.788Z,5.10
2023-08-05T17:28:13.655Z,5.60
2023-08-05T17:32:21.536Z,5.70
2023-08-05T17:36:29.446Z,5.90
2023-08-05T17:40:37.122Z,7.40
2023-08-05T17:44:44.618Z,6.20
2023-08-05T17:48:52.610Z,6.10
2023-08-05T17:53:05.337Z,6.10
2023-08-05T17:57:19.886Z,9.60
2023-08-05T18:01:28.308Z,7.30
2023-08-05T18:05:36.280Z,6.70
2023-08-05T18:09:44.140Z,6.90
2023-08-05T18:13:52.363Z,6.80
2023-08-05T18:18:00.587Z,6.70
2023-08-05T18:22:09.761Z,6.20
2023-08-05T18:26:18.882Z,6.90
2023-08-05T18:30:28.450Z,6.30
2023-08-05T18:34:37.393Z,5.70
2023-08-05T18:38:45.480Z,6.20
2023-08-05T18:42:53.095Z,6.10
2023-08-05T18:47:00.784Z,6.40
2023-08-05T18:51:09.006Z,6.90
2023-08-05T18:55:17.563Z,6.40
2023-08-05T18:59:28.086Z,8.00
2023-08-05T19:03:37.974Z,7.40
2023-08-05T19:07:46.802Z,6.10
2023-08-05T19:11:54.658Z,7.50
2023-08-05T19:16:05.305Z,6.70
2023-08-05T19:20:17.603Z,6.90
2023-08-05T19:24:32.443Z,6.40
2023-08-05T19:28:40.334Z,7.70
2023-08-05T19:32:49.889Z,6.20
2023-08-05T19:36:58.762Z,6.20
2023-08-05T19:41:07.134Z,6.70
2023-08-05T19:45:14.890Z,6.90
2023-08-05T19:49:23.128Z,8.30
2023-08-05T19:53:31.801Z,7.10
2023-08-05T19:57:42.489Z,7.60
2023-08-05T20:01:55.958Z,7.30
2023-08-05T20:06:09.644Z,7.70
2023-08-05T20:10:30.940Z,7.00
2023-08-05T20:14:47.853Z,8.00
2023-08-05T20:18:56.078Z,8.00
2023-08-05T20:23:05.180Z,9.30
2023-08-05T20:27:13.108Z,8.70
2023-08-05T20:31:25.732Z,9.90
2023-08-05T20:35:36.302Z,8.00
2023-08-05T20:39:44.007Z,8.40
2023-08-05T20:43:52.029Z,9.00
2023-08-05T20:47:59.969Z,7.80
2023-08-05T20:52:10.012Z,8.00
2023-08-05T20:56:17.766Z,10.20
2023-08-05T21:00:25.160Z,10.10
2023-08-05T21:04:32.951Z,9.00
2023-08-05T21:08:41.779Z,12.20
2023-08-05T21:12:49.363Z,9.30
2023-08-05T21:16:57.009Z,9.00
2023-08-05T21:21:04.944Z,8.60
2023-08-05T21:25:12.978Z,9.50
2023-08-05T21:29:21.023Z,9.00
2023-08-05T21:33:29.823Z,10.30
2023-08-05T21:37:37.833Z,8.00
2023-08-05T21:41:45.770Z,8.50
2023-08-05T21:45:54.341Z,10.50
2023-08-05T21:50:01.866Z,9.50
2023-08-05T21:54:12.763Z,11.70
2023-08-05T21:58:20.867Z,8.90
2023-08-05T22:02:28.323Z,8.30
2023-08-05T22:06:36.111Z,9.60
2023-08-05T22:10:44.364Z,10.90
2023-08-05T22:14:52.863Z,9.50
2023-08-05T22:19:00.633Z,9.40
2023-08-05T22:23:08.458Z,8.50
2023-08-05T22:27:16.114Z,10.60
2023-08-05T22:31:25.322Z,9.30
2023-08-05T22:35:34.128Z,9.50
2023-08-05T22:39:43.216Z,9.80
2023-08-05T22:43:52.467Z,10.30
2023-08-05T22:47:59.887Z,9.00
2023-08-05T22:52:08.664Z,8.00
2023-08-05T22:56:16.531Z,9.40
2023-08-05T23:00:24.920Z,7.50
2023-08-05T23:04:32.641Z,8.40
2023-08-05T23:08:41.989Z,10.40
2023-08-05T23:12:49.643Z,7.40
2023-08-05T23:16:57.177Z,8.10
2023-08-05T23:21:08.453Z,7.90
2023-08-05T23:25:16.505Z,7.50
2023-08-05T23:29:24.102Z,8.30
2023-08-05T23:33:31.781Z,7.00
2023-08-05T23:37:40.447Z,6.60
2023-08-05T23:41:48.138Z,7.80
2023-08-05T23:45:55.735Z,7.40
2023-08-05T23:50:03.364Z,7.60
2023-08-05T23:54:11.117Z,6.90
2023-08-05T23:58:18.577Z,6.30
